sensor_id;sensor_type;location;lat;lon;timestamp;P1;durP1;ratioP1;P2;durP2;ratioP2
4700;SDS011;8724;51.272;6.554;2023-04-20T00:01:13;4.47;;;3.17;;
4700;SDS011;8724;51.272;6.554;2023-04-20T00:03:41;3.90;;;2.90;;
4700;SDS011;8724;51.272;6.554;2023-04-20T00:06:10;4.93;;;3.33;;
4700;SDS011;8724;51.272;6.554;2023-04-20T00:08:39;4.50;;;3.40;;
4700;SDS011;8724;51.272;6.554;2023-04-20T00:11:07;4.10;;;3.30;;
4700;SDS011;8724;51.272;6.554;2023-04-20T00:13:37;3.40;;;3.10;;
4700;SDS011;8724;51.272;6.554;2023-04-20T00:16:06;3.23;;;2.93;;
4700;SDS011;8724;51.272;6.554;2023-04-20T00:18:34;3.30;;;2.40;;
4700;SDS011;8724;51.272;6.554;2023-04-20T00:21:02;3.50;;;2.70;;
4700;SDS011;8724;51.272;6.554;2023-04-20T00:23:31;6.07;;;3.43;;
4700;SDS011;8724;51.272;6.554;2023-04-20T00:26:00;7.10;;;2.57;;
4700;SDS011;8724;51.272;6.554;2023-04-20T00:28:28;5.20;;;3.03;;
4700;SDS011;8724;51.272;6.554;2023-04-20T00:30:58;3.80;;;2.80;;
4700;SDS011;8724;51.272;6.554;2023-04-20T00:33:26;4.33;;;3.27;;
4700;SDS011;8724;51.272;6.554;2023-04-20T00:35:54;4.80;;;2.80;;
4700;SDS011;8724;51.272;6.554;2023-04-20T00:38:23;4.97;;;3.40;;
4700;SDS011;8724;51.272;6.554;2023-04-20T00:40:51;9.40;;;3.10;;
4700;SDS011;8724;51.272;6.554;2023-04-20T00:43:20;4.13;;;2.60;;
4700;SDS011;8724;51.272;6.554;2023-04-20T00:45:50;5.00;;;3.03;;
4700;SDS011;8724;51.272;6.554;2023-04-20T00:48:20;5.30;;;3.43;;
4700;SDS011;8724;51.272;6.554;2023-04-20T00:50:49;2.77;;;2.47;;
4700;SDS011;8724;51.272;6.554;2023-04-20T00:53:17;7.97;;;3.10;;
4700;SDS011;8724;51.272;6.554;2023-04-20T00:55:49;3.90;;;3.23;;
4700;SDS011;8724;51.272;6.554;2023-04-20T00:58:17;4.80;;;2.50;;
4700;SDS011;8724;51.272;6.554;2023-04-20T01:00:46;3.30;;;3.00;;
4700;SDS011;8724;51.272;6.554;2023-04-20T01:03:16;8.13;;;3.20;;
4700;SDS011;8724;51.272;6.554;2023-04-20T01:05:48;3.60;;;3.10;;
4700;SDS011;8724;51.272;6.554;2023-04-20T01:08:17;3.63;;;2.50;;
4700;SDS011;8724;51.272;6.554;2023-04-20T01:10:45;3.03;;;2.70;;
4700;SDS011;8724;51.272;6.554;2023-04-20T01:13:13;4.47;;;2.67;;
4700;SDS011;8724;51.272;6.554;2023-04-20T01:15:41;7.10;;;2.90;;
4700;SDS011;8724;51.272;6.554;2023-04-20T01:18:10;5.73;;;2.70;;
4700;SDS011;8724;51.272;6.554;2023-04-20T01:20:39;3.10;;;2.43;;
4700;SDS011;8724;51.272;6.554;2023-04-20T01:23:09;5.70;;;3.60;;
4700;SDS011;8724;51.272;6.554;2023-04-20T01:25:37;2.73;;;2.53;;
4700;SDS011;8724;51.272;6.554;2023-04-20T01:28:07;2.67;;;2.13;;
4700;SDS011;8724;51.272;6.554;2023-04-20T01:30:36;3.13;;;2.67;;
4700;SDS011;8724;51.272;6.554;2023-04-20T01:33:04;3.63;;;2.40;;
4700;SDS011;8724;51.272;6.554;2023-04-20T01:35:33;4.00;;;2.10;;
4700;SDS011;8724;51.272;6.554;2023-04-20T01:38:01;3.10;;;2.80;;
4700;SDS011;8724;51.272;6.554;2023-04-20T01:40:31;5.17;;;2.73;;
4700;SDS011;8724;51.272;6.554;2023-04-20T01:42:59;2.53;;;2.30;;
4700;SDS011;8724;51.272;6.554;2023-04-20T01:45:28;2.77;;;2.17;;
4700;SDS011;8724;51.272;6.554;2023-04-20T01:47:56;2.80;;;2.40;;
4700;SDS011;8724;51.272;6.554;2023-04-20T01:50:24;2.50;;;2.20;;
4700;SDS011;8724;51.272;6.554;2023-04-20T01:52:53;5.50;;;2.10;;
4700;SDS011;8724;51.272;6.554;2023-04-20T01:55:21;3.10;;;2.33;;
4700;SDS011;8724;51.272;6.554;2023-04-20T01:57:52;3.63;;;2.67;;
4700;SDS011;8724;51.272;6.554;2023-04-20T02:00:22;3.60;;;2.93;;
4700;SDS011;8724;51.272;6.554;2023-04-20T02:02:50;2.73;;;2.27;;
4700;SDS011;8724;51.272;6.554;2023-04-20T02:05:21;2.10;;;2.00;;
4700;SDS011;8724;51.272;6.554;2023-04-20T02:07:49;2.40;;;2.20;;
4700;SDS011;8724;51.272;6.554;2023-04-20T02:10:18;3.00;;;2.77;;
4700;SDS011;8724;51.272;6.554;2023-04-20T02:12:46;3.23;;;2.73;;
4700;SDS011;8724;51.272;6.554;2023-04-20T02:15:17;6.40;;;2.70;;
4700;SDS011;8724;51.272;6.554;2023-04-20T02:17:45;2.50;;;2.30;;
4700;SDS011;8724;51.272;6.554;2023-04-20T02:20:18;3.37;;;2.63;;
4700;SDS011;8724;51.272;6.554;2023-04-20T02:22:46;6.93;;;2.57;;
4700;SDS011;8724;51.272;6.554;2023-04-20T02:25:15;2.90;;;2.37;;
4700;SDS011;8724;51.272;6.554;2023-04-20T02:27:44;7.63;;;2.60;;
4700;SDS011;8724;51.272;6.554;2023-04-20T02:30:12;4.00;;;2.27;;
4700;SDS011;8724;51.272;6.554;2023-04-20T02:32:42;4.67;;;2.60;;
4700;SDS011;8724;51.272;6.554;2023-04-20T02:35:13;2.60;;;2.10;;
4700;SDS011;8724;51.272;6.554;2023-04-20T02:37:41;2.40;;;2.20;;
4700;SDS011;8724;51.272;6.554;2023-04-20T02:40:10;2.10;;;1.93;;
4700;SDS011;8724;51.272;6.554;2023-04-20T02:42:39;3.10;;;2.47;;
4700;SDS011;8724;51.272;6.554;2023-04-20T02:45:10;3.90;;;2.60;;
4700;SDS011;8724;51.272;6.554;2023-04-20T02:47:43;5.70;;;4.73;;
4700;SDS011;8724;51.272;6.554;2023-04-20T02:50:13;18.70;;;11.63;;
4700;SDS011;8724;51.272;6.554;2023-04-20T02:53:02;23.13;;;3.73;;
4700;SDS011;8724;51.272;6.554;2023-04-20T02:55:33;3.07;;;2.60;;
4700;SDS011;8724;51.272;6.554;2023-04-20T02:58:09;12.20;;;8.73;;
4700;SDS011;8724;51.272;6.554;2023-04-20T03:00:58;14.57;;;10.70;;
4700;SDS011;8724;51.272;6.554;2023-04-20T03:03:28;9.50;;;6.77;;
4700;SDS011;8724;51.272;6.554;2023-04-20T03:05:58;4.83;;;3.70;;
4700;SDS011;8724;51.272;6.554;2023-04-20T03:08:26;3.50;;;2.50;;
4700;SDS011;8724;51.272;6.554;2023-04-20T03:10:59;3.07;;;2.40;;
4700;SDS011;8724;51.272;6.554;2023-04-20T03:13:27;4.07;;;2.90;;
4700;SDS011;8724;51.272;6.554;2023-04-20T03:15:59;3.40;;;2.87;;
4700;SDS011;8724;51.272;6.554;2023-04-20T03:18:34;2.60;;;2.10;;
4700;SDS011;8724;51.272;6.554;2023-04-20T03:21:02;4.60;;;1.97;;
4700;SDS011;8724;51.272;6.554;2023-04-20T03:23:32;7.30;;;2.20;;
4700;SDS011;8724;51.272;6.554;2023-04-20T03:26:02;3.40;;;2.20;;
4700;SDS011;8724;51.272;6.554;2023-04-20T03:28:39;2.33;;;2.10;;
4700;SDS011;8724;51.272;6.554;2023-04-20T03:31:11;3.07;;;2.13;;
4700;SDS011;8724;51.272;6.554;2023-04-20T03:33:41;2.57;;;2.37;;
4700;SDS011;8724;51.272;6.554;2023-04-20T03:36:09;4.47;;;2.17;;
4700;SDS011;8724;51.272;6.554;2023-04-20T03:38:37;2.77;;;2.03;;
4700;SDS011;8724;51.272;6.554;2023-04-20T03:41:06;2.57;;;2.33;;
4700;SDS011;8724;51.272;6.554;2023-04-20T03:43:34;2.73;;;2.17;;
4700;SDS011;8724;51.272;6.554;2023-04-20T03:46:03;5.20;;;2.20;;
4700;SDS011;8724;51.272;6.554;2023-04-20T03:48:32;2.70;;;2.50;;
4700;SDS011;8724;51.272;6.554;2023-04-20T03:51:03;4.17;;;2.60;;
4700;SDS011;8724;51.272;6.554;2023-04-20T03:53:31;3.20;;;2.20;;
4700;SDS011;8724;51.272;6.554;2023-04-20T03:56:00;3.03;;;2.40;;
4700;SDS011;8724;51.272;6.554;2023-04-20T03:58:29;2.77;;;2.13;;
4700;SDS011;8724;51.272;6.554;2023-04-20T04:01:12;2.63;;;2.40;;
4700;SDS011;8724;51.272;6.554;2023-04-20T04:03:45;3.50;;;2.20;;
4700;SDS011;8724;51.272;6.554;2023-04-20T04:06:15;3.87;;;2.30;;
4700;SDS011;8724;51.272;6.554;2023-04-20T04:08:43;4.47;;;2.60;;
4700;SDS011;8724;51.272;6.554;2023-04-20T04:11:11;2.93;;;2.63;;
4700;SDS011;8724;51.272;6.554;2023-04-20T04:13:40;3.33;;;2.20;;
4700;SDS011;8724;51.272;6.554;2023-04-20T04:16:09;2.73;;;2.43;;
4700;SDS011;8724;51.272;6.554;2023-04-20T04:18:40;2.60;;;2.00;;
4700;SDS011;8724;51.272;6.554;2023-04-20T04:21:10;4.77;;;2.90;;
4700;SDS011;8724;51.272;6.554;2023-04-20T04:23:44;8.37;;;3.20;;
4700;SDS011;8724;51.272;6.554;2023-04-20T04:26:25;2.60;;;2.40;;
4700;SDS011;8724;51.272;6.554;2023-04-20T04:28:53;7.43;;;2.63;;
4700;SDS011;8724;51.272;6.554;2023-04-20T04:31:21;1.90;;;1.80;;
4700;SDS011;8724;51.272;6.554;2023-04-20T04:33:50;6.00;;;3.03;;
4700;SDS011;8724;51.272;6.554;2023-04-20T04:36:29;4.33;;;2.90;;
4700;SDS011;8724;51.272;6.554;2023-04-20T04:38:59;4.40;;;2.80;;
4700;SDS011;8724;51.272;6.554;2023-04-20T04:41:28;2.97;;;2.60;;
4700;SDS011;8724;51.272;6.554;2023-04-20T04:44:07;2.90;;;2.53;;
4700;SDS011;8724;51.272;6.554;2023-04-20T04:46:38;4.60;;;2.43;;
4700;SDS011;8724;51.272;6.554;2023-04-20T04:49:07;2.87;;;2.57;;
4700;SDS011;8724;51.272;6.554;2023-04-20T04:51:35;4.10;;;2.87;;
4700;SDS011;8724;51.272;6.554;2023-04-20T04:54:05;4.53;;;2.80;;
4700;SDS011;8724;51.272;6.554;2023-04-20T04:56:34;3.60;;;2.10;;
4700;SDS011;8724;51.272;6.554;2023-04-20T04:59:02;3.43;;;2.20;;
4700;SDS011;8724;51.272;6.554;2023-04-20T05:01:31;3.20;;;2.40;;
4700;SDS011;8724;51.272;6.554;2023-04-20T05:03:59;3.17;;;2.87;;
4700;SDS011;8724;51.272;6.554;2023-04-20T05:06:28;3.67;;;2.70;;
4700;SDS011;8724;51.272;6.554;2023-04-20T05:08:56;3.10;;;1.90;;
4700;SDS011;8724;51.272;6.554;2023-04-20T05:11:26;4.80;;;2.40;;
4700;SDS011;8724;51.272;6.554;2023-04-20T05:13:55;3.50;;;2.13;;
4700;SDS011;8724;51.272;6.554;2023-04-20T05:16:23;3.90;;;2.40;;
4700;SDS011;8724;51.272;6.554;2023-04-20T05:18:52;4.93;;;2.53;;
4700;SDS011;8724;51.272;6.554;2023-04-20T05:21:20;7.20;;;2.57;;
4700;SDS011;8724;51.272;6.554;2023-04-20T05:23:48;4.30;;;3.00;;
4700;SDS011;8724;51.272;6.554;2023-04-20T05:26:16;5.50;;;2.83;;
4700;SDS011;8724;51.272;6.554;2023-04-20T05:28:46;3.97;;;2.90;;
4700;SDS011;8724;51.272;6.554;2023-04-20T05:31:14;4.13;;;3.10;;
4700;SDS011;8724;51.272;6.554;2023-04-20T05:33:43;4.10;;;3.10;;
4700;SDS011;8724;51.272;6.554;2023-04-20T05:36:11;2.63;;;2.43;;
4700;SDS011;8724;51.272;6.554;2023-04-20T05:38:40;3.00;;;2.80;;
4700;SDS011;8724;51.272;6.554;2023-04-20T05:41:08;3.20;;;2.90;;
4700;SDS011;8724;51.272;6.554;2023-04-20T05:43:36;9.87;;;3.70;;
4700;SDS011;8724;51.272;6.554;2023-04-20T05:46:06;6.90;;;2.93;;
4700;SDS011;8724;51.272;6.554;2023-04-20T05:48:34;7.67;;;3.00;;
4700;SDS011;8724;51.272;6.554;2023-04-20T05:51:03;3.80;;;2.80;;
4700;SDS011;8724;51.272;6.554;2023-04-20T05:53:31;4.53;;;3.03;;
4700;SDS011;8724;51.272;6.554;2023-04-20T05:56:00;4.30;;;3.00;;
4700;SDS011;8724;51.272;6.554;2023-04-20T05:58:29;5.73;;;3.67;;
4700;SDS011;8724;51.272;6.554;2023-04-20T06:00:59;6.83;;;3.10;;
4700;SDS011;8724;51.272;6.554;2023-04-20T06:03:30;6.07;;;3.67;;
4700;SDS011;8724;51.272;6.554;2023-04-20T06:05:59;4.07;;;2.97;;
4700;SDS011;8724;51.272;6.554;2023-04-20T06:08:27;6.13;;;3.43;;
4700;SDS011;8724;51.272;6.554;2023-04-20T06:10:56;5.57;;;3.70;;
4700;SDS011;8724;51.272;6.554;2023-04-20T06:13:24;6.80;;;3.50;;
4700;SDS011;8724;51.272;6.554;2023-04-20T06:15:52;3.63;;;3.13;;
4700;SDS011;8724;51.272;6.554;2023-04-20T06:18:21;6.27;;;3.70;;
4700;SDS011;8724;51.272;6.554;2023-04-20T06:20:51;4.10;;;3.57;;
4700;SDS011;8724;51.272;6.554;2023-04-20T06:23:19;4.70;;;3.80;;
4700;SDS011;8724;51.272;6.554;2023-04-20T06:25:47;5.57;;;3.10;;
4700;SDS011;8724;51.272;6.554;2023-04-20T06:28:16;8.33;;;4.10;;
4700;SDS011;8724;51.272;6.554;2023-04-20T06:30:44;3.87;;;3.10;;
4700;SDS011;8724;51.272;6.554;2023-04-20T06:33:12;5.57;;;3.97;;
4700;SDS011;8724;51.272;6.554;2023-04-20T06:35:42;4.13;;;3.57;;
4700;SDS011;8724;51.272;6.554;2023-04-20T06:38:12;3.80;;;2.93;;
4700;SDS011;8724;51.272;6.554;2023-04-20T06:40:40;6.47;;;4.00;;
4700;SDS011;8724;51.272;6.554;2023-04-20T06:43:09;3.80;;;3.40;;
4700;SDS011;8724;51.272;6.554;2023-04-20T06:45:37;3.73;;;2.87;;
4700;SDS011;8724;51.272;6.554;2023-04-20T06:48:05;9.13;;;4.23;;
4700;SDS011;8724;51.272;6.554;2023-04-20T06:50:54;3.60;;;3.30;;
4700;SDS011;8724;51.272;6.554;2023-04-20T06:53:24;3.93;;;3.30;;
4700;SDS011;8724;51.272;6.554;2023-04-20T06:55:52;3.90;;;3.17;;
4700;SDS011;8724;51.272;6.554;2023-04-20T06:58:21;4.50;;;4.10;;
4700;SDS011;8724;51.272;6.554;2023-04-20T07:00:49;4.40;;;3.90;;
4700;SDS011;8724;51.272;6.554;2023-04-20T07:03:18;6.83;;;4.10;;
4700;SDS011;8724;51.272;6.554;2023-04-20T07:05:46;4.70;;;4.20;;
4700;SDS011;8724;51.272;6.554;2023-04-20T07:08:15;4.40;;;3.67;;
4700;SDS011;8724;51.272;6.554;2023-04-20T07:10:44;4.20;;;3.80;;
4700;SDS011;8724;51.272;6.554;2023-04-20T07:13:12;3.50;;;3.20;;
4700;SDS011;8724;51.272;6.554;2023-04-20T07:15:41;5.10;;;4.03;;
4700;SDS011;8724;51.272;6.554;2023-04-20T07:18:11;5.00;;;3.87;;
4700;SDS011;8724;51.272;6.554;2023-04-20T07:20:39;3.67;;;2.90;;
4700;SDS011;8724;51.272;6.554;2023-04-20T07:23:08;4.83;;;3.03;;
4700;SDS011;8724;51.272;6.554;2023-04-20T07:25:36;3.90;;;3.50;;
4700;SDS011;8724;51.272;6.554;2023-04-20T07:28:06;6.60;;;4.33;;
4700;SDS011;8724;51.272;6.554;2023-04-20T07:30:34;4.00;;;3.27;;
4700;SDS011;8724;51.272;6.554;2023-04-20T07:33:02;5.17;;;3.60;;
4700;SDS011;8724;51.272;6.554;2023-04-20T07:35:31;4.60;;;3.80;;
4700;SDS011;8724;51.272;6.554;2023-04-20T07:37:59;4.40;;;4.00;;
4700;SDS011;8724;51.272;6.554;2023-04-20T07:40:28;3.83;;;3.40;;
4700;SDS011;8724;51.272;6.554;2023-04-20T07:42:56;3.83;;;3.40;;
4700;SDS011;8724;51.272;6.554;2023-04-20T07:45:26;3.30;;;3.00;;
4700;SDS011;8724;51.272;6.554;2023-04-20T07:47:54;5.23;;;3.50;;
4700;SDS011;8724;51.272;6.554;2023-04-20T07:50:23;5.33;;;4.50;;
4700;SDS011;8724;51.272;6.554;2023-04-20T07:52:51;4.00;;;3.60;;
4700;SDS011;8724;51.272;6.554;2023-04-20T07:55:19;4.30;;;3.90;;
4700;SDS011;8724;51.272;6.554;2023-04-20T07:57:48;4.23;;;3.83;;
4700;SDS011;8724;51.272;6.554;2023-04-20T08:00:18;4.27;;;3.87;;
4700;SDS011;8724;51.272;6.554;2023-04-20T08:02:48;5.30;;;4.80;;
4700;SDS011;8724;51.272;6.554;2023-04-20T08:05:16;8.57;;;4.73;;
4700;SDS011;8724;51.272;6.554;2023-04-20T08:07:45;4.73;;;4.33;;
4700;SDS011;8724;51.272;6.554;2023-04-20T08:10:14;6.00;;;4.50;;
4700;SDS011;8724;51.272;6.554;2023-04-20T08:12:42;4.50;;;4.00;;
4700;SDS011;8724;51.272;6.554;2023-04-20T08:15:10;6.30;;;4.40;;
4700;SDS011;8724;51.272;6.554;2023-04-20T08:17:40;5.10;;;4.27;;
4700;SDS011;8724;51.272;6.554;2023-04-20T08:20:09;4.30;;;3.90;;
4700;SDS011;8724;51.272;6.554;2023-04-20T08:22:38;4.33;;;3.93;;
4700;SDS011;8724;51.272;6.554;2023-04-20T08:25:06;5.83;;;4.07;;
4700;SDS011;8724;51.272;6.554;2023-04-20T08:27:35;5.47;;;4.20;;
4700;SDS011;8724;51.272;6.554;2023-04-20T08:30:04;5.03;;;4.47;;
4700;SDS011;8724;51.272;6.554;2023-04-20T08:32:34;4.97;;;4.27;;
4700;SDS011;8724;51.272;6.554;2023-04-20T08:35:02;4.77;;;4.37;;
4700;SDS011;8724;51.272;6.554;2023-04-20T08:37:32;6.20;;;5.50;;
4700;SDS011;8724;51.272;6.554;2023-04-20T08:40:01;6.03;;;4.77;;
4700;SDS011;8724;51.272;6.554;2023-04-20T08:42:31;4.40;;;4.00;;
4700;SDS011;8724;51.272;6.554;2023-04-20T08:44:59;5.10;;;4.37;;
4700;SDS011;8724;51.272;6.554;2023-04-20T08:47:27;4.83;;;4.37;;
4700;SDS011;8724;51.272;6.554;2023-04-20T08:49:56;4.80;;;4.00;;
4700;SDS011;8724;51.272;6.554;2023-04-20T08:52:26;4.80;;;4.40;;
4700;SDS011;8724;51.272;6.554;2023-04-20T08:54:56;5.07;;;4.67;;
4700;SDS011;8724;51.272;6.554;2023-04-20T08:57:24;5.30;;;4.80;;
4700;SDS011;8724;51.272;6.554;2023-04-20T08:59:52;4.77;;;3.73;;
4700;SDS011;8724;51.272;6.554;2023-04-20T09:02:22;4.97;;;4.47;;
4700;SDS011;8724;51.272;6.554;2023-04-20T09:04:59;4.57;;;4.17;;
4700;SDS011;8724;51.272;6.554;2023-04-20T09:07:28;4.73;;;4.13;;
4700;SDS011;8724;51.272;6.554;2023-04-20T09:09:58;4.33;;;3.93;;
4700;SDS011;8724;51.272;6.554;2023-04-20T09:12:27;5.83;;;4.00;;
4700;SDS011;8724;51.272;6.554;2023-04-20T09:15:06;5.30;;;4.80;;
4700;SDS011;8724;51.272;6.554;2023-04-20T09:17:36;4.10;;;3.70;;
4700;SDS011;8724;51.272;6.554;2023-04-20T09:20:07;4.50;;;4.10;;
4700;SDS011;8724;51.272;6.554;2023-04-20T09:22:37;4.07;;;3.60;;
4700;SDS011;8724;51.272;6.554;2023-04-20T09:25:16;5.70;;;3.90;;
4700;SDS011;8724;51.272;6.554;2023-04-20T09:27:53;4.97;;;3.80;;
4700;SDS011;8724;51.272;6.554;2023-04-20T09:30:22;6.60;;;4.00;;
4700;SDS011;8724;51.272;6.554;2023-04-20T09:32:59;4.40;;;4.00;;
4700;SDS011;8724;51.272;6.554;2023-04-20T09:35:28;4.57;;;4.17;;
4700;SDS011;8724;51.272;6.554;2023-04-20T09:37:56;4.53;;;3.77;;
4700;SDS011;8724;51.272;6.554;2023-04-20T09:40:26;3.83;;;3.53;;
4700;SDS011;8724;51.272;6.554;2023-04-20T09:42:55;4.23;;;3.90;;
4700;SDS011;8724;51.272;6.554;2023-04-20T09:45:29;4.40;;;3.77;;
4700;SDS011;8724;51.272;6.554;2023-04-20T09:47:58;3.97;;;3.67;;
4700;SDS011;8724;51.272;6.554;2023-04-20T09:50:27;5.00;;;4.30;;
4700;SDS011;8724;51.272;6.554;2023-04-20T09:53:11;5.90;;;4.30;;
4700;SDS011;8724;51.272;6.554;2023-04-20T09:55:45;4.67;;;4.27;;
4700;SDS011;8724;51.272;6.554;2023-04-20T09:58:15;4.50;;;3.90;;
4700;SDS011;8724;51.272;6.554;2023-04-20T10:00:45;6.77;;;4.50;;
4700;SDS011;8724;51.272;6.554;2023-04-20T10:03:15;6.93;;;4.27;;
4700;SDS011;8724;51.272;6.554;2023-04-20T10:05:44;6.43;;;5.00;;
4700;SDS011;8724;51.272;6.554;2023-04-20T10:08:12;4.60;;;3.93;;
4700;SDS011;8724;51.272;6.554;2023-04-20T10:10:42;3.60;;;3.30;;
4700;SDS011;8724;51.272;6.554;2023-04-20T10:13:13;4.33;;;3.93;;
4700;SDS011;8724;51.272;6.554;2023-04-20T10:15:45;6.23;;;4.40;;
4700;SDS011;8724;51.272;6.554;2023-04-20T10:18:14;4.70;;;4.30;;
4700;SDS011;8724;51.272;6.554;2023-04-20T10:20:46;4.20;;;3.60;;
4700;SDS011;8724;51.272;6.554;2023-04-20T10:23:15;3.93;;;3.63;;
4700;SDS011;8724;51.272;6.554;2023-04-20T10:25:56;5.30;;;4.00;;
4700;SDS011;8724;51.272;6.554;2023-04-20T10:28:36;5.47;;;4.10;;
4700;SDS011;8724;51.272;6.554;2023-04-20T10:31:06;4.43;;;3.53;;
4700;SDS011;8724;51.272;6.554;2023-04-20T10:33:47;4.00;;;3.70;;
4700;SDS011;8724;51.272;6.554;2023-04-20T10:36:23;4.07;;;3.77;;
4700;SDS011;8724;51.272;6.554;2023-04-20T10:38:54;4.10;;;3.60;;
4700;SDS011;8724;51.272;6.554;2023-04-20T10:41:24;3.50;;;3.30;;
4700;SDS011;8724;51.272;6.554;2023-04-20T10:43:52;7.63;;;3.17;;
4700;SDS011;8724;51.272;6.554;2023-04-20T10:46:21;2.97;;;2.70;;
4700;SDS011;8724;51.272;6.554;2023-04-20T10:48:54;5.00;;;2.77;;
4700;SDS011;8724;51.272;6.554;2023-04-20T10:51:24;4.27;;;3.87;;
4700;SDS011;8724;51.272;6.554;2023-04-20T10:53:59;3.90;;;3.60;;
4700;SDS011;8724;51.272;6.554;2023-04-20T10:56:38;3.67;;;3.37;;
4700;SDS011;8724;51.272;6.554;2023-04-20T10:59:07;3.50;;;3.17;;
4700;SDS011;8724;51.272;6.554;2023-04-20T11:01:37;2.80;;;2.60;;
4700;SDS011;8724;51.272;6.554;2023-04-20T11:04:06;2.90;;;2.70;;
4700;SDS011;8724;51.272;6.554;2023-04-20T11:06:36;2.37;;;2.27;;
4700;SDS011;8724;51.272;6.554;2023-04-20T11:09:14;2.10;;;2.00;;
4700;SDS011;8724;51.272;6.554;2023-04-20T11:11:47;2.27;;;2.17;;
4700;SDS011;8724;51.272;6.554;2023-04-20T11:14:25;2.10;;;2.00;;
4700;SDS011;8724;51.272;6.554;2023-04-20T11:16:53;1.87;;;1.77;;
4700;SDS011;8724;51.272;6.554;2023-04-20T11:19:22;2.00;;;1.90;;
4700;SDS011;8724;51.272;6.554;2023-04-20T11:21:52;2.40;;;2.10;;
4700;SDS011;8724;51.272;6.554;2023-04-20T11:24:23;3.07;;;2.77;;
4700;SDS011;8724;51.272;6.554;2023-04-20T11:26:54;3.23;;;2.93;;
4700;SDS011;8724;51.272;6.554;2023-04-20T11:29:29;2.60;;;2.40;;
4700;SDS011;8724;51.272;6.554;2023-04-20T11:31:59;2.53;;;2.33;;
4700;SDS011;8724;51.272;6.554;2023-04-20T11:34:29;2.50;;;2.30;;
4700;SDS011;8724;51.272;6.554;2023-04-20T11:37:02;2.30;;;2.10;;
4700;SDS011;8724;51.272;6.554;2023-04-20T11:39:31;2.20;;;2.00;;
4700;SDS011;8724;51.272;6.554;2023-04-20T11:42:01;2.43;;;2.33;;
4700;SDS011;8724;51.272;6.554;2023-04-20T11:44:30;2.20;;;2.00;;
4700;SDS011;8724;51.272;6.554;2023-04-20T11:46:59;2.03;;;1.87;;
4700;SDS011;8724;51.272;6.554;2023-04-20T11:49:27;1.90;;;1.80;;
4700;SDS011;8724;51.272;6.554;2023-04-20T11:51:56;1.73;;;1.40;;
4700;SDS011;8724;51.272;6.554;2023-04-20T11:54:24;1.77;;;1.67;;
4700;SDS011;8724;51.272;6.554;2023-04-20T11:56:53;1.60;;;1.50;;
4700;SDS011;8724;51.272;6.554;2023-04-20T11:59:24;1.63;;;1.53;;
4700;SDS011;8724;51.272;6.554;2023-04-20T12:01:52;2.00;;;1.60;;
4700;SDS011;8724;51.272;6.554;2023-04-20T12:04:20;2.00;;;1.90;;
4700;SDS011;8724;51.272;6.554;2023-04-20T12:06:49;1.90;;;1.80;;
4700;SDS011;8724;51.272;6.554;2023-04-20T12:09:17;2.10;;;2.00;;
4700;SDS011;8724;51.272;6.554;2023-04-20T12:11:46;1.93;;;1.83;;
4700;SDS011;8724;51.272;6.554;2023-04-20T12:14:14;2.50;;;2.40;;
4700;SDS011;8724;51.272;6.554;2023-04-20T12:16:44;2.00;;;1.90;;
4700;SDS011;8724;51.272;6.554;2023-04-20T12:19:13;2.40;;;2.30;;
4700;SDS011;8724;51.272;6.554;2023-04-20T12:21:42;2.03;;;1.93;;
4700;SDS011;8724;51.272;6.554;2023-04-20T12:24:12;1.50;;;1.40;;
4700;SDS011;8724;51.272;6.554;2023-04-20T12:26:40;2.70;;;1.93;;
4700;SDS011;8724;51.272;6.554;2023-04-20T12:29:08;1.30;;;1.30;;
4700;SDS011;8724;51.272;6.554;2023-04-20T12:31:37;1.60;;;1.50;;
4700;SDS011;8724;51.272;6.554;2023-04-20T12:34:06;1.87;;;1.77;;
4700;SDS011;8724;51.272;6.554;2023-04-20T12:36:35;1.70;;;1.60;;
4700;SDS011;8724;51.272;6.554;2023-04-20T12:39:03;1.53;;;1.40;;
4700;SDS011;8724;51.272;6.554;2023-04-20T12:41:31;1.37;;;1.27;;
4700;SDS011;8724;51.272;6.554;2023-04-20T12:44:00;1.80;;;1.70;;
4700;SDS011;8724;51.272;6.554;2023-04-20T12:46:32;2.00;;;1.80;;
4700;SDS011;8724;51.272;6.554;2023-04-20T12:49:00;1.83;;;1.70;;
4700;SDS011;8724;51.272;6.554;2023-04-20T12:51:30;1.60;;;1.50;;
4700;SDS011;8724;51.272;6.554;2023-04-20T12:53:58;2.40;;;2.20;;
4700;SDS011;8724;51.272;6.554;2023-04-20T12:56:27;2.30;;;2.20;;
4700;SDS011;8724;51.272;6.554;2023-04-20T12:58:55;1.70;;;1.60;;
4700;SDS011;8724;51.272;6.554;2023-04-20T13:01:23;1.77;;;1.67;;
4700;SDS011;8724;51.272;6.554;2023-04-20T13:03:52;1.87;;;1.73;;
4700;SDS011;8724;51.272;6.554;2023-04-20T13:06:20;1.80;;;1.70;;
4700;SDS011;8724;51.272;6.554;2023-04-20T13:08:50;1.60;;;1.50;;
4700;SDS011;8724;51.272;6.554;2023-04-20T13:11:19;2.20;;;2.00;;
4700;SDS011;8724;51.272;6.554;2023-04-20T13:13:47;2.10;;;2.00;;
4700;SDS011;8724;51.272;6.554;2023-04-20T13:16:15;2.30;;;2.10;;
4700;SDS011;8724;51.272;6.554;2023-04-20T13:18:44;1.60;;;1.50;;
4700;SDS011;8724;51.272;6.554;2023-04-20T13:21:12;2.00;;;1.80;;
4700;SDS011;8724;51.272;6.554;2023-04-20T13:23:40;3.73;;;2.20;;
4700;SDS011;8724;51.272;6.554;2023-04-20T13:26:10;2.13;;;1.73;;
4700;SDS011;8724;51.272;6.554;2023-04-20T13:28:38;1.80;;;1.70;;
4700;SDS011;8724;51.272;6.554;2023-04-20T13:31:07;1.67;;;1.57;;
4700;SDS011;8724;51.272;6.554;2023-04-20T13:33:35;1.60;;;1.50;;
4700;SDS011;8724;51.272;6.554;2023-04-20T13:36:03;2.10;;;1.80;;
4700;SDS011;8724;51.272;6.554;2023-04-20T13:38:32;2.60;;;2.10;;
4700;SDS011;8724;51.272;6.554;2023-04-20T13:41:00;2.73;;;2.53;;
4700;SDS011;8724;51.272;6.554;2023-04-20T13:43:30;3.00;;;2.80;;
4700;SDS011;8724;51.272;6.554;2023-04-20T13:45:59;2.93;;;2.73;;
4700;SDS011;8724;51.272;6.554;2023-04-20T13:48:27;6.33;;;3.00;;
4700;SDS011;8724;51.272;6.554;2023-04-20T13:50:55;2.60;;;2.40;;
4700;SDS011;8724;51.272;6.554;2023-04-20T13:53:24;4.83;;;2.97;;
4700;SDS011;8724;51.272;6.554;2023-04-20T13:55:52;2.40;;;2.20;;
4700;SDS011;8724;51.272;6.554;2023-04-20T13:58:21;1.90;;;1.80;;
4700;SDS011;8724;51.272;6.554;2023-04-20T14:00:50;2.30;;;2.10;;
4700;SDS011;8724;51.272;6.554;2023-04-20T14:03:19;2.43;;;2.23;;
4700;SDS011;8724;51.272;6.554;2023-04-20T14:05:47;2.37;;;2.17;;
4700;SDS011;8724;51.272;6.554;2023-04-20T14:08:17;2.00;;;1.90;;
4700;SDS011;8724;51.272;6.554;2023-04-20T14:10:46;3.37;;;3.07;;
4700;SDS011;8724;51.272;6.554;2023-04-20T14:13:14;3.10;;;2.00;;
4700;SDS011;8724;51.272;6.554;2023-04-20T14:15:42;2.57;;;2.37;;
4700;SDS011;8724;51.272;6.554;2023-04-20T14:18:12;2.20;;;1.97;;
4700;SDS011;8724;51.272;6.554;2023-04-20T14:20:40;2.60;;;2.40;;
4700;SDS011;8724;51.272;6.554;2023-04-20T14:23:09;2.70;;;2.20;;
4700;SDS011;8724;51.272;6.554;2023-04-20T14:25:37;2.77;;;2.57;;
4700;SDS011;8724;51.272;6.554;2023-04-20T14:28:05;3.10;;;2.13;;
4700;SDS011;8724;51.272;6.554;2023-04-20T14:30:34;2.70;;;2.50;;
4700;SDS011;8724;51.272;6.554;2023-04-20T14:33:02;2.17;;;2.07;;
4700;SDS011;8724;51.272;6.554;2023-04-20T14:35:33;3.40;;;2.80;;
4700;SDS011;8724;51.272;6.554;2023-04-20T14:38:01;3.77;;;2.43;;
4700;SDS011;8724;51.272;6.554;2023-04-20T14:40:30;3.70;;;2.50;;
4700;SDS011;8724;51.272;6.554;2023-04-20T14:42:58;3.17;;;2.33;;
4700;SDS011;8724;51.272;6.554;2023-04-20T14:45:27;3.73;;;3.43;;
4700;SDS011;8724;51.272;6.554;2023-04-20T14:47:55;3.17;;;2.77;;
4700;SDS011;8724;51.272;6.554;2023-04-20T14:50:24;2.97;;;2.67;;
4700;SDS011;8724;51.272;6.554;2023-04-20T14:52:55;3.00;;;2.67;;
4700;SDS011;8724;51.272;6.554;2023-04-20T14:55:23;2.50;;;2.20;;
4700;SDS011;8724;51.272;6.554;2023-04-20T14:57:52;2.67;;;2.33;;
4700;SDS011;8724;51.272;6.554;2023-04-20T15:00:22;2.50;;;2.30;;
4700;SDS011;8724;51.272;6.554;2023-04-20T15:02:51;2.30;;;2.20;;
4700;SDS011;8724;51.272;6.554;2023-04-20T15:05:22;2.67;;;2.47;;
4700;SDS011;8724;51.272;6.554;2023-04-20T15:07:50;4.67;;;2.67;;
4700;SDS011;8724;51.272;6.554;2023-04-20T15:10:20;2.17;;;2.07;;
4700;SDS011;8724;51.272;6.554;2023-04-20T15:12:48;2.60;;;2.40;;
4700;SDS011;8724;51.272;6.554;2023-04-20T15:15:16;2.83;;;2.63;;
4700;SDS011;8724;51.272;6.554;2023-04-20T15:17:45;3.20;;;2.77;;
4700;SDS011;8724;51.272;6.554;2023-04-20T15:20:13;2.57;;;2.37;;
4700;SDS011;8724;51.272;6.554;2023-04-20T15:22:42;2.57;;;2.37;;
4700;SDS011;8724;51.272;6.554;2023-04-20T15:25:10;2.47;;;2.27;;
4700;SDS011;8724;51.272;6.554;2023-04-20T15:27:40;3.00;;;2.70;;
4700;SDS011;8724;51.272;6.554;2023-04-20T15:30:08;3.10;;;2.80;;